createdAt,value
2023-03-25T08:24:34.315Z,100.00
2023-03-25T08:27:15.477Z,100.00
2023-03-25T08:55:12.620Z,100.00
2023-03-25T08:57:40.080Z,100.00
2023-03-25T09:00:16.945Z,100.00
2023-03-25T09:02:44.909Z,100.00
2023-03-25T09:08:24.937Z,100.00
2023-03-25T09:10:54.621Z,100.00
2023-03-25T09:13:22.021Z,100.00
2023-03-25T09:15:49.606Z,100.00
2023-03-25T09:18:17.209Z,100.00
2023-03-25T09:25:35.574Z,100.00
2023-03-25T09:28:03.890Z,100.00
2023-03-25T09:30:31.335Z,100.00
2023-03-25T09:32:58.899Z,100.00
2023-03-25T09:35:26.392Z,100.00
2023-03-25T09:39:10.131Z,100.00
2023-03-25T09:42:45.755Z,100.00
2023-03-25T09:45:49.890Z,100.00
2023-03-25T09:48:36.722Z,100.00
2023-03-25T09:51:25.637Z,100.00
2023-03-25T09:54:34.052Z,100.00
2023-03-25T09:57:13.879Z,100.00
2023-03-25T09:59:49.181Z,100.00
2023-03-25T10:03:02.717Z,100.00
2023-03-25T10:06:12.290Z,100.00
2023-03-25T10:09:04.834Z,100.00
2023-03-25T10:12:11.601Z,100.00
2023-03-25T10:15:30.689Z,100.00
2023-03-25T10:18:49.886Z,100.00
2023-03-25T10:21:50.631Z,100.00
2023-03-25T10:24:34.531Z,100.00
2023-03-25T10:27:34.498Z,100.00
2023-03-25T10:30:27.277Z,100.00
2023-03-25T10:33:06.855Z,100.00
2023-03-25T10:35:43.178Z,100.00
2023-03-25T10:38:20.969Z,100.00
2023-03-25T10:41:37.423Z,100.00
2023-03-25T10:44:12.854Z,100.00
2023-03-25T10:46:52.262Z,100.00
2023-03-25T10:49:27.421Z,100.00
2023-03-25T10:51:57.655Z,100.00
2023-03-25T10:54:33.521Z,100.00
2023-03-25T10:57:08.122Z,100.00
2023-03-25T10:59:52.643Z,100.00
2023-03-25T11:02:26.087Z,100.00
2023-03-25T11:05:05.160Z,100.00
2023-03-25T11:07:50.773Z,100.00
2023-03-25T11:10:23.980Z,100.00
2023-03-25T11:12:54.695Z,100.00
2023-03-25T11:15:30.733Z,100.00
2023-03-25T11:18:24.855Z,100.00
2023-03-25T11:21:15.603Z,96.44
2023-03-25T11:23:52.447Z,94.29
2023-03-25T11:26:36.432Z,91.63
2023-03-25T11:29:19.650Z,94.68
2023-03-25T11:32:13.079Z,85.63
2023-03-25T11:34:43.740Z,86.97
2023-03-25T11:37:22.639Z,86.03
2023-03-25T11:39:56.048Z,80.80
2023-03-25T11:42:42.829Z,77.88
2023-03-25T11:45:39.243Z,77.18
2023-03-25T11:48:29.838Z,75.13
2023-03-25T11:51:03.074Z,73.95
2023-03-25T11:53:33.630Z,74.54
2023-03-25T11:56:11.850Z,73.06
2023-03-25T11:58:40.800Z,72.03
2023-03-25T12:01:46.124Z,70.59
2023-03-25T12:04:32.531Z,69.77
2023-03-25T12:07:15.400Z,66.45
2023-03-25T12:10:04.769Z,66.06
2023-03-25T12:14:06.652Z,64.25
2023-03-25T12:17:28.730Z,64.99
2023-03-25T12:20:39.776Z,63.60
2023-03-25T12:23:56.956Z,61.73
2023-03-25T12:27:16.590Z,60.88
2023-03-25T12:30:38.461Z,60.38
2023-03-25T12:33:48.685Z,61.06
2023-03-25T12:36:42.881Z,58.71
2023-03-25T12:40:11.385Z,57.58
2023-03-25T12:43:10.952Z,55.65
2023-03-25T12:46:15.792Z,57.06
2023-03-25T12:49:44.537Z,56.48
2023-03-25T12:52:33.657Z,55.86
2023-03-25T12:55:36.940Z,55.82
2023-03-25T12:58:56.330Z,55.09
2023-03-25T13:02:15.776Z,53.80
2023-03-25T13:06:02.223Z,55.23
2023-03-25T13:09:05.308Z,54.34
2023-03-25T13:11:59.655Z,55.19
2023-03-25T13:14:44.883Z,54.82
2023-03-25T13:17:32.047Z,55.57
2023-03-25T13:20:06.524Z,56.42
2023-03-25T13:22:44.990Z,56.93
2023-03-25T13:25:33.685Z,57.49
2023-03-25T13:28:10.334Z,58.04
2023-03-25T13:30:46.891Z,57.44
2023-03-25T13:33:25.620Z,57.47
2023-03-25T13:36:34.396Z,58.09
2023-03-25T13:39:24.748Z,57.84
2023-03-25T13:42:13.521Z,58.58
2023-03-25T13:44:47.086Z,58.73
2023-03-25T13:47:40.140Z,58.30
2023-03-25T13:50:32.084Z,57.25
2023-03-25T13:53:51.926Z,57.70
2023-03-25T13:57:25.976Z,57.06
2023-03-25T14:00:34.592Z,58.36
2023-03-25T14:04:13.374Z,57.52
2023-03-25T14:07:46.473Z,57.77
2023-03-25T14:11:18.415Z,58.64
2023-03-25T14:14:01.765Z,59.12
2023-03-25T14:16:43.150Z,61.23
2023-03-25T14:19:32.527Z,61.67
2023-03-25T14:22:06.561Z,64.05
2023-03-25T14:24:41.629Z,68.86
2023-03-25T14:27:34.903Z,94.02
2023-03-25T14:30:28.724Z,100.00
2023-03-25T14:32:56.995Z,100.00
2023-03-25T14:35:33.802Z,95.78
2023-03-25T14:38:09.908Z,93.79
2023-03-25T14:40:50.726Z,92.04
2023-03-25T14:43:47.744Z,83.18
2023-03-25T14:46:24.363Z,78.24
2023-03-25T14:49:23.026Z,74.20
2023-03-25T14:51:56.936Z,72.10
2023-03-25T14:54:34.753Z,69.71
2023-03-25T14:57:33.068Z,68.68
2023-03-25T15:00:13.893Z,68.20
2023-03-25T15:02:44.238Z,68.24
2023-03-25T15:05:24.694Z,67.69
2023-03-25T15:08:00.216Z,66.44
2023-03-25T15:10:38.219Z,64.75
2023-03-25T15:13:33.317Z,62.91
2023-03-25T15:16:38.323Z,60.98
2023-03-25T15:19:14.559Z,60.82
2023-03-25T15:22:01.168Z,58.52
2023-03-25T15:24:43.748Z,58.32
2023-03-25T15:28:05.095Z,58.60
2023-03-25T15:31:32.043Z,59.02
2023-03-25T15:35:00.298Z,59.64
2023-03-25T15:38:17.742Z,60.64
2023-03-25T15:42:04.210Z,60.44
2023-03-25T15:45:08.100Z,60.55
2023-03-25T15:48:27.494Z,61.38
2023-03-25T15:51:38.617Z,61.82
2023-03-25T15:54:44.251Z,62.74
2023-03-25T15:58:03.564Z,61.61
2023-03-25T16:00:44.960Z,61.30
2023-03-25T16:03:29.243Z,62.18
2023-03-25T16:06:05.843Z,61.34
2023-03-25T16:08:40.784Z,61.12
2023-03-25T16:11:35.626Z,62.33
2023-03-25T16:14:17.459Z,61.99
2023-03-25T16:17:00.095Z,63.78
2023-03-25T16:19:49.603Z,61.69
2023-03-25T16:22:28.935Z,62.06
2023-03-25T16:25:27.134Z,60.71
2023-03-25T16:28:01.565Z,62.35
2023-03-25T16:30:43.127Z,60.77
2023-03-25T16:33:10.686Z,62.06
2023-03-25T16:35:59.060Z,62.52
2023-03-25T16:38:27.697Z,62.26
2023-03-25T16:41:14.885Z,62.58
2023-03-25T16:43:43.471Z,62.77
2023-03-25T16:46:15.195Z,62.21
2023-03-25T16:48:53.563Z,61.73
2023-03-25T16:51:36.091Z,61.31
2023-03-25T16:54:22.198Z,61.56
2023-03-25T16:56:50.208Z,62.41
2023-03-25T16:59:36.799Z,61.40
2023-03-25T17:02:28.355Z,61.95
2023-03-25T17:05:19.026Z,62.19
2023-03-25T17:08:08.662Z,62.16
2023-03-25T17:10:55.278Z,62.28
2023-03-25T17:13:44.695Z,62.29
2023-03-25T17:16:13.198Z,62.08
2023-03-25T17:18:40.821Z,61.56
2023-03-25T17:21:20.020Z,61.14
2023-03-25T17:23:47.854Z,61.61
2023-03-25T17:26:21.165Z,60.25
2023-03-25T17:28:51.529Z,59.98
2023-03-25T17:31:34.701Z,59.90
2023-03-25T17:34:12.856Z,59.65
2023-03-25T17:36:47.138Z,59.65
2023-03-25T17:39:27.957Z,60.53
2023-03-25T17:42:06.777Z,60.52
2023-03-25T17:44:43.523Z,60.92
2023-03-25T17:47:19.127Z,61.48
2023-03-25T17:49:46.768Z,61.36
2023-03-25T17:52:14.149Z,62.10
2023-03-25T17:54:41.585Z,61.58
2023-03-25T17:57:19.765Z,61.96
2023-03-25T17:59:47.824Z,61.51
2023-03-25T18:02:17.425Z,61.57
2023-03-25T18:04:44.866Z,61.82
2023-03-25T18:07:12.467Z,62.04
2023-03-25T18:09:41.323Z,62.81
2023-03-25T18:12:10.383Z,63.32
2023-03-25T18:14:37.803Z,63.26
2023-03-25T18:17:05.303Z,63.18
2023-03-25T18:19:34.099Z,62.61
2023-03-25T18:22:10.005Z,62.88
2023-03-25T18:24:46.570Z,63.64
2023-03-25T18:27:14.696Z,63.75
2023-03-25T18:29:42.206Z,63.71
2023-03-25T18:32:09.808Z,63.25
2023-03-25T18:34:37.255Z,63.56
2023-03-25T18:37:04.730Z,63.31
2023-03-25T18:39:32.786Z,63.28
2023-03-25T18:42:00.310Z,62.97
2023-03-25T18:44:28.632Z,62.69
2023-03-25T18:46:56.405Z,63.33
2023-03-25T18:49:23.858Z,62.63
2023-03-25T18:51:51.469Z,62.98
2023-03-25T18:54:19.547Z,62.66
2023-03-25T18:56:47.441Z,62.88
2023-03-25T18:59:21.979Z,62.56
2023-03-25T19:01:49.827Z,62.14
2023-03-25T19:04:18.301Z,61.52
2023-03-25T19:06:45.732Z,61.57
2023-03-25T19:09:22.868Z,61.95
2023-03-25T19:11:51.296Z,61.59
2023-03-25T19:14:18.913Z,61.83
2023-03-25T19:16:57.252Z,61.81
2023-03-25T19:19:28.960Z,62.28
2023-03-25T19:21:56.414Z,61.73
2023-03-25T19:24:49.503Z,61.34
2023-03-25T19:27:28.633Z,61.78
2023-03-25T19:29:56.237Z,62.04
2023-03-25T19:32:23.838Z,62.89
2023-03-25T19:35:03.051Z,63.54
2023-03-25T19:37:35.376Z,64.10
2023-03-25T19:40:09.386Z,64.44
2023-03-25T19:42:38.677Z,65.87
2023-03-25T19:45:10.740Z,66.83
2023-03-25T19:47:42.219Z,67.11
2023-03-25T19:50:19.104Z,67.16
2023-03-25T19:52:49.944Z,68.19
2023-03-25T19:55:18.421Z,67.52
2023-03-25T19:57:47.528Z,70.00
2023-03-25T20:00:26.192Z,69.62
2023-03-25T20:03:02.226Z,69.76
2023-03-25T20:05:33.839Z,70.62
2023-03-25T20:08:01.781Z,71.37
2023-03-25T20:10:30.541Z,71.30
2023-03-25T20:13:00.268Z,71.52
2023-03-25T20:15:27.777Z,71.29
2023-03-25T20:17:56.213Z,71.43
2023-03-25T20:20:25.036Z,72.23
2023-03-25T20:22:53.261Z,71.61
2023-03-25T20:25:21.405Z,71.37
2023-03-25T20:27:48.999Z,71.58
2023-03-25T20:30:19.949Z,70.64
2023-03-25T20:32:48.793Z,71.14
2023-03-25T20:35:19.066Z,71.10
2023-03-25T20:37:49.149Z,72.96
2023-03-25T20:40:19.784Z,72.80
2023-03-25T20:42:49.660Z,73.45
2023-03-25T20:45:18.752Z,72.92
2023-03-25T20:47:46.510Z,72.56
2023-03-25T20:50:16.590Z,73.51
2023-03-25T20:52:44.982Z,73.67
2023-03-25T20:55:13.025Z,72.07
2023-03-25T20:57:41.493Z,72.83
2023-03-25T21:00:18.174Z,75.13
2023-03-25T21:02:46.310Z,73.27
2023-03-25T21:05:13.860Z,73.08
2023-03-25T21:07:41.773Z,74.91
2023-03-25T21:10:10.444Z,75.06
2023-03-25T21:12:44.006Z,75.41
2023-03-25T21:15:17.073Z,75.62
2023-03-25T21:17:44.573Z,74.99
2023-03-25T21:20:12.919Z,75.38
2023-03-25T21:22:43.879Z,75.11
2023-03-25T21:25:14.763Z,74.62
2023-03-25T21:27:45.452Z,74.44
2023-03-25T21:30:14.089Z,73.89
2023-03-25T21:32:41.919Z,73.73
2023-03-25T21:35:10.462Z,74.72
2023-03-25T21:37:39.272Z,74.95
2023-03-25T21:40:11.738Z,72.86
2023-03-25T21:42:41.725Z,73.89
2023-03-25T21:45:13.980Z,73.56
2023-03-25T21:47:43.347Z,74.35
2023-03-25T21:50:14.692Z,74.13
2023-03-25T21:52:47.085Z,73.78
2023-03-25T21:55:19.650Z,73.85
2023-03-25T21:57:51.932Z,72.37
2023-03-25T22:00:20.310Z,71.88
2023-03-25T22:02:48.439Z,71.05
2023-03-25T22:05:17.146Z,70.44
2023-03-25T22:07:45.129Z,70.10
2023-03-25T22:10:12.781Z,70.09
2023-03-25T22:12:40.506Z,69.95
2023-03-25T22:15:10.126Z,69.59
2023-03-25T22:17:37.672Z,69.80
2023-03-25T22:20:06.168Z,68.87
2023-03-25T22:22:33.633Z,69.33
2023-03-25T22:25:01.250Z,69.00
2023-03-25T22:27:28.730Z,68.96
2023-03-25T22:29:56.297Z,68.51
2023-03-25T22:32:27.282Z,68.52
2023-03-25T22:34:55.187Z,68.25
2023-03-25T22:37:22.566Z,68.59
2023-03-25T22:39:50.548Z,68.43
2023-03-25T22:42:18.062Z,68.75
2023-03-25T22:44:46.499Z,69.05
2023-03-25T22:47:13.951Z,68.39
2023-03-25T22:49:41.383Z,68.69
2023-03-25T22:52:08.869Z,69.60
2023-03-25T22:54:36.408Z,69.18
2023-03-25T22:57:04.231Z,69.53
2023-03-25T22:59:31.969Z,68.72
2023-03-25T23:01:59.466Z,68.86
2023-03-25T23:04:27.012Z,68.72
2023-03-25T23:07:06.849Z,68.28
2023-03-25T23:09:42.112Z,68.82
2023-03-25T23:12:20.776Z,68.38
2023-03-25T23:14:56.915Z,68.82
2023-03-25T23:17:26.658Z,68.63
2023-03-25T23:19:54.326Z,68.08
2023-03-25T23:22:22.367Z,68.55
2023-03-25T23:24:49.883Z,68.35
2023-03-25T23:27:17.708Z,69.60
2023-03-25T23:29:45.211Z,69.67
2023-03-25T23:32:12.691Z,69.96
2023-03-25T23:34:40.432Z,69.92
2023-03-25T23:37:09.340Z,69.47
2023-03-25T23:39:40.590Z,70.03
2023-03-25T23:42:09.053Z,69.80
2023-03-25T23:44:36.453Z,70.33
2023-03-25T23:47:04.893Z,71.06
2023-03-25T23:49:34.031Z,70.54
2023-03-25T23:52:01.547Z,71.92
2023-03-25T23:54:29.119Z,70.78
2023-03-25T23:56:56.623Z,71.20
2023-03-25T23:59:24.094Z,71.94
